createdAt,value
2023-05-24T00:00:14.394Z,101715.75
2023-05-24T00:02:44.941Z,101717.02
2023-05-24T00:05:13.021Z,101713.10
2023-05-24T00:07:41.042Z,101716.20
2023-05-24T00:10:09.797Z,101706.16
2023-05-24T00:12:37.776Z,101700.91
2023-05-24T00:15:06.279Z,101700.05
2023-05-24T00:17:36.047Z,101696.88
2023-05-24T00:20:06.450Z,101699.46
2023-05-24T00:22:35.164Z,101690.54
2023-05-24T00:25:03.149Z,101690.73
2023-05-24T00:27:31.182Z,101683.93
2023-05-24T00:29:59.129Z,101685.99
2023-05-24T00:32:27.182Z,101695.67
2023-05-24T00:34:55.282Z,101693.28
2023-05-24T00:37:23.211Z,101685.44
2023-05-24T00:39:51.107Z,101697.47
2023-05-24T00:42:19.048Z,101689.82
2023-05-24T00:44:47.675Z,101683.77
2023-05-24T00:47:15.820Z,101686.65
2023-05-24T00:49:44.101Z,101688.25
2023-05-24T00:52:12.083Z,101683.48
2023-05-24T00:54:42.047Z,101685.05
2023-05-24T00:57:10.134Z,101685.57
2023-05-24T00:59:38.405Z,101683.67
2023-05-24T01:02:06.494Z,101675.33
2023-05-24T01:04:34.559Z,101668.76
2023-05-24T01:07:10.802Z,101672.75
2023-05-24T01:10:04.693Z,101674.02
2023-05-24T01:12:48.188Z,101670.36
2023-05-24T01:15:48.118Z,101671.63
2023-05-24T01:18:27.666Z,101662.94
2023-05-24T01:21:21.742Z,101669.51
2023-05-24T01:23:55.731Z,101663.95
2023-05-24T01:26:41.518Z,101671.80
2023-05-24T01:29:10.104Z,101675.69
2023-05-24T01:31:38.534Z,101675.69
2023-05-24T01:34:06.412Z,101672.52
2023-05-24T01:36:34.306Z,101684.84
2023-05-24T01:39:02.435Z,101675.13
2023-05-24T01:41:54.588Z,101678.02
2023-05-24T01:44:28.247Z,101670.63
2023-05-24T01:47:05.979Z,101677.69
2023-05-24T01:49:39.896Z,101675.62
2023-05-24T01:52:14.235Z,101681.67
2023-05-24T01:54:47.007Z,101677.78
2023-05-24T01:57:16.156Z,101679.88
2023-05-24T01:59:45.931Z,101672.81
2023-05-24T02:02:14.233Z,101675.98
2023-05-24T02:04:42.550Z,101672.59
2023-05-24T02:07:10.520Z,101672.59
2023-05-24T02:09:38.488Z,101670.49
2023-05-24T02:12:06.959Z,101675.98
2023-05-24T02:14:34.842Z,101679.16
2023-05-24T02:17:04.120Z,101673.37
2023-05-24T02:19:32.308Z,101679.95
2023-05-24T02:22:00.293Z,101674.97
2023-05-24T02:24:28.177Z,101676.54
2023-05-24T02:26:57.470Z,101670.79
2023-05-24T02:29:25.453Z,101670.27
2023-05-24T02:31:57.631Z,101676.05
2023-05-24T02:34:26.031Z,101673.96
2023-05-24T02:36:55.718Z,101669.77
2023-05-24T02:39:23.720Z,101672.16
2023-05-24T02:41:51.766Z,101662.22
2023-05-24T02:44:19.846Z,101666.38
2023-05-24T02:46:47.913Z,101659.02
2023-05-24T02:49:15.985Z,101660.32
2023-05-24T02:51:43.919Z,101666.90
2023-05-24T02:54:12.042Z,101659.54
2023-05-24T02:56:40.991Z,101660.55
2023-05-24T02:59:09.373Z,101664.45
2023-05-24T03:01:37.325Z,101659.96
2023-05-24T03:04:05.391Z,101659.70
2023-05-24T03:06:34.009Z,101658.88
2023-05-24T03:09:02.353Z,101658.10
2023-05-24T03:11:30.276Z,101659.41
2023-05-24T03:13:58.182Z,101659.63
2023-05-24T03:16:26.699Z,101656.95
2023-05-24T03:18:56.794Z,101656.89
2023-05-24T03:21:24.859Z,101656.07
2023-05-24T03:23:52.936Z,101655.52
2023-05-24T03:26:21.898Z,101653.91
2023-05-24T03:28:51.856Z,101650.74
2023-05-24T03:31:22.122Z,101653.33
2023-05-24T03:33:50.218Z,101650.45
2023-05-24T03:36:18.110Z,101654.63
2023-05-24T03:38:46.350Z,101660.09
2023-05-24T03:41:14.333Z,101662.68
2023-05-24T03:43:42.238Z,101662.88
2023-05-24T03:46:10.184Z,101659.70
2023-05-24T03:48:38.148Z,101662.02
2023-05-24T03:51:06.062Z,101663.00
2023-05-24T03:53:34.058Z,101663.20
2023-05-24T03:56:01.921Z,101676.34
2023-05-24T03:58:29.888Z,101671.87
2023-05-24T04:00:57.923Z,101673.14
2023-05-24T04:03:27.291Z,101672.65
2023-05-24T04:05:55.443Z,101683.38
2023-05-24T04:08:23.572Z,101682.59
2023-05-24T04:10:51.478Z,101682.10
2023-05-24T04:13:19.336Z,101683.38
2023-05-24T04:15:47.320Z,101692.53
2023-05-24T04:18:15.338Z,101688.87
2023-05-24T04:20:43.504Z,101693.84
2023-05-24T04:23:11.825Z,101686.98
2023-05-24T04:25:39.948Z,101687.76
2023-05-24T04:28:07.911Z,101690.38
2023-05-24T04:30:37.339Z,101688.18
2023-05-24T04:33:05.430Z,101695.87
2023-05-24T04:35:33.404Z,101693.52
2023-05-24T04:38:01.439Z,101705.61
2023-05-24T04:40:29.406Z,101703.84
2023-05-24T04:42:57.505Z,101697.57
2023-05-24T04:45:26.378Z,101703.72
2023-05-24T04:47:54.389Z,101706.10
2023-05-24T04:50:22.377Z,101708.52
2023-05-24T04:52:50.323Z,101710.38
2023-05-24T04:55:18.278Z,101696.06
2023-05-24T04:57:46.287Z,101703.29
2023-05-24T05:00:14.956Z,101702.70
2023-05-24T05:02:42.916Z,101719.31
2023-05-24T05:05:11.062Z,101722.39
2023-05-24T05:07:39.704Z,101727.81
2023-05-24T05:10:08.875Z,101724.19
2023-05-24T05:12:36.805Z,101729.58
2023-05-24T05:15:04.857Z,101723.83
2023-05-24T05:17:32.839Z,101730.40
2023-05-24T05:20:00.801Z,101735.86
2023-05-24T05:22:30.675Z,101736.32
2023-05-24T05:24:59.273Z,101737.92
2023-05-24T05:27:27.405Z,101736.84
2023-05-24T05:29:55.329Z,101738.61
2023-05-24T05:32:23.271Z,101739.88
2023-05-24T05:34:51.181Z,101736.68
2023-05-24T05:37:19.090Z,101746.91
2023-05-24T05:39:47.188Z,101747.89
2023-05-24T05:42:15.122Z,101738.02
2023-05-24T05:44:43.044Z,101743.77
2023-05-24T05:47:11.087Z,101747.63
2023-05-24T05:49:39.086Z,101749.07
2023-05-24T05:52:07.596Z,101751.36
2023-05-24T05:54:35.715Z,101749.46
2023-05-24T05:57:03.746Z,101760.16
2023-05-24T05:59:31.835Z,101751.52
2023-05-24T06:01:59.764Z,101748.65
2023-05-24T06:04:27.796Z,101748.94
2023-05-24T06:06:55.858Z,101752.47
2023-05-24T06:09:24.052Z,101740.77
2023-05-24T06:11:52.097Z,101742.50
2023-05-24T06:14:21.160Z,101744.69
2023-05-24T06:16:49.861Z,101747.24
2023-05-24T06:19:18.131Z,101749.59
2023-05-24T06:21:49.283Z,101742.07
2023-05-24T06:24:21.818Z,101749.23
2023-05-24T06:26:51.814Z,101746.84
2023-05-24T06:29:23.831Z,101743.48
2023-05-24T06:31:52.117Z,101741.71
2023-05-24T06:34:22.593Z,101743.19
2023-05-24T06:36:52.588Z,101749.73
2023-05-24T06:39:20.601Z,101747.60
2023-05-24T06:41:48.755Z,101754.14
2023-05-24T06:44:17.747Z,101753.02
2023-05-24T06:46:45.721Z,101754.27
2023-05-24T06:49:14.183Z,101754.04
2023-05-24T06:51:42.124Z,101753.65
2023-05-24T06:54:10.058Z,101759.41
2023-05-24T06:56:38.141Z,101762.77
2023-05-24T06:59:06.118Z,101765.35
2023-05-24T07:01:34.483Z,101762.94
2023-05-24T07:04:02.612Z,101767.12
2023-05-24T07:06:30.630Z,101772.29
2023-05-24T07:08:58.601Z,101772.45
2023-05-24T07:11:26.695Z,101789.72
2023-05-24T07:13:54.624Z,101786.02
2023-05-24T07:16:22.821Z,101785.27
2023-05-24T07:18:50.877Z,101781.28
2023-05-24T07:21:18.860Z,101796.45
2023-05-24T07:23:46.912Z,101796.65
2023-05-24T07:26:14.849Z,101792.63
2023-05-24T07:28:42.953Z,101791.38
2023-05-24T07:31:11.536Z,101792.95
2023-05-24T07:33:39.823Z,101789.62
2023-05-24T07:36:08.496Z,101799.00
2023-05-24T07:38:37.422Z,101793.25
2023-05-24T07:41:06.114Z,101792.63
2023-05-24T07:43:34.371Z,101804.14
2023-05-24T07:46:02.316Z,101799.85
2023-05-24T07:48:30.246Z,101799.56
2023-05-24T07:50:58.158Z,101801.91
2023-05-24T07:53:26.141Z,101801.45
2023-05-24T07:55:54.080Z,101804.34
2023-05-24T07:58:21.977Z,101802.57
2023-05-24T08:00:50.135Z,101798.38
2023-05-24T08:03:19.064Z,101798.71
2023-05-24T08:05:47.091Z,101800.61
2023-05-24T08:08:15.304Z,101795.96
2023-05-24T08:10:43.307Z,101797.73
2023-05-24T08:13:11.236Z,101804.76
2023-05-24T08:15:39.199Z,101801.59
2023-05-24T08:18:07.221Z,101812.12
2023-05-24T08:20:37.979Z,101804.30
2023-05-24T08:23:06.095Z,101811.92
2023-05-24T08:25:34.383Z,101808.26
2023-05-24T08:28:02.425Z,101806.98
2023-05-24T08:30:30.429Z,101810.65
2023-05-24T08:32:59.457Z,101806.98
2023-05-24T08:35:27.471Z,101812.73
2023-05-24T08:37:55.494Z,101814.34
2023-05-24T08:40:25.728Z,101812.73
2023-05-24T08:42:54.818Z,101808.88
2023-05-24T08:45:23.920Z,101808.59
2023-05-24T08:47:53.466Z,101813.72
2023-05-24T08:50:22.107Z,101810.35
2023-05-24T08:52:51.375Z,101816.40
2023-05-24T08:55:20.097Z,101817.22
2023-05-24T08:57:48.969Z,101818.49
2023-05-24T09:00:18.121Z,101820.09
2023-05-24T09:02:48.904Z,101822.68
2023-05-24T09:05:23.120Z,101823.27
2023-05-24T09:07:52.456Z,101829.02
2023-05-24T09:10:23.057Z,101826.15
2023-05-24T09:12:56.803Z,101823.27
2023-05-24T09:15:24.940Z,101821.66
2023-05-24T09:17:52.917Z,101827.42
2023-05-24T09:20:22.787Z,101830.00
2023-05-24T09:22:54.497Z,101825.85
2023-05-24T09:25:23.048Z,101821.66
2023-05-24T09:27:55.343Z,101820.69
2023-05-24T09:30:23.670Z,101818.92
2023-05-24T09:33:02.287Z,101820.32
2023-05-24T09:35:30.301Z,101813.39
2023-05-24T09:38:01.504Z,101823.92
2023-05-24T09:40:30.177Z,101819.77
2023-05-24T09:43:11.552Z,101822.94
2023-05-24T09:45:48.100Z,101821.66
2023-05-24T09:48:18.582Z,101811.53
2023-05-24T09:50:49.581Z,101817.91
2023-05-24T09:53:20.686Z,101823.17
2023-05-24T09:55:50.150Z,101818.20
2023-05-24T09:58:18.672Z,101823.76
2023-05-24T10:00:47.262Z,101827.75
2023-05-24T10:03:16.533Z,101820.69
2023-05-24T10:05:46.616Z,101821.80
2023-05-24T10:08:15.665Z,101817.15
2023-05-24T10:10:44.837Z,101815.35
2023-05-24T10:13:13.867Z,101822.22
2023-05-24T10:15:42.470Z,101818.23
2023-05-24T10:18:13.691Z,101830.56
2023-05-24T10:20:46.319Z,101831.34
2023-05-24T10:23:21.140Z,101816.43
2023-05-24T10:26:07.825Z,101819.93
2023-05-24T10:28:50.332Z,101825.00
2023-05-24T10:31:29.462Z,101819.05
2023-05-24T10:34:07.262Z,101824.28
2023-05-24T10:36:37.059Z,101820.45
2023-05-24T10:39:05.630Z,101825.69
2023-05-24T10:41:42.365Z,101823.13
2023-05-24T10:44:15.108Z,101834.16
2023-05-24T10:47:15.192Z,101826.51
2023-05-24T10:49:54.292Z,101829.97
2023-05-24T10:52:22.557Z,101835.23
2023-05-24T10:55:07.240Z,101835.43
2023-05-24T10:57:35.815Z,101840.53
2023-05-24T11:03:00.838Z,101848.45
2023-05-24T11:05:51.137Z,101848.19
2023-05-24T11:08:33.257Z,101839.72
2023-05-24T11:11:25.570Z,101835.53
2023-05-24T11:13:59.048Z,101834.78
2023-05-24T11:16:39.609Z,101824.61
2023-05-24T11:19:17.937Z,101828.70
2023-05-24T11:21:50.860Z,101815.68
2023-05-24T11:24:20.158Z,101821.05
2023-05-24T11:26:48.511Z,101818.52
2023-05-24T11:29:23.539Z,101821.53
2023-05-24T11:31:56.824Z,101804.23
2023-05-24T11:34:25.978Z,101814.77
2023-05-24T11:36:54.529Z,101808.32
2023-05-24T11:39:22.513Z,101803.65
2023-05-24T11:41:50.872Z,101801.33
2023-05-24T11:44:20.978Z,101797.23
2023-05-24T11:46:48.994Z,101796.55
2023-05-24T11:49:18.205Z,101797.11
2023-05-24T11:51:46.218Z,101798.52
2023-05-24T11:54:14.213Z,101795.47
2023-05-24T11:56:42.755Z,101797.73
2023-05-24T11:59:15.842Z,101789.81
2023-05-24T12:01:44.682Z,101782.88
2023-05-24T12:04:13.234Z,101788.08
2023-05-24T12:06:45.948Z,101788.21
2023-05-24T12:09:18.010Z,101784.95
2023-05-24T12:11:49.412Z,101779.52
2023-05-24T12:14:24.565Z,101773.04
2023-05-24T12:16:55.437Z,101771.27
2023-05-24T12:19:33.306Z,101776.90
2023-05-24T12:22:06.259Z,101771.66
2023-05-24T12:24:34.808Z,101775.63
2023-05-24T12:27:08.769Z,101778.30
2023-05-24T12:29:38.981Z,101774.09
2023-05-24T12:32:07.929Z,101782.55
2023-05-24T12:34:35.885Z,101782.82
2023-05-24T12:37:04.101Z,101780.79
2023-05-24T12:39:37.864Z,101774.15
2023-05-24T12:42:06.394Z,101771.80
2023-05-24T12:44:39.152Z,101774.74
2023-05-24T12:47:09.083Z,101773.20
2023-05-24T12:49:37.841Z,101773.83
2023-05-24T12:52:06.420Z,101778.08
2023-05-24T12:54:34.643Z,101774.15
2023-05-24T12:57:03.963Z,101770.75
2023-05-24T12:59:32.006Z,101763.49
2023-05-24T13:01:59.998Z,101771.66
2023-05-24T13:04:28.428Z,101766.20
2023-05-24T13:06:56.551Z,101760.19
2023-05-24T13:09:24.544Z,101758.13
2023-05-24T13:11:53.598Z,101759.17
2023-05-24T13:14:21.585Z,101756.04
2023-05-24T13:16:49.825Z,101753.91
2023-05-24T13:19:18.637Z,101752.34
2023-05-24T13:21:47.285Z,101757.87
2023-05-24T13:24:17.271Z,101758.91
2023-05-24T13:26:45.870Z,101759.63
2023-05-24T13:31:45.577Z,101750.87
2023-05-24T13:34:13.721Z,101743.94
2023-05-24T13:36:41.817Z,101742.10
2023-05-24T13:41:42.898Z,101740.96
2023-05-24T13:44:11.576Z,101745.90
2023-05-24T13:46:40.286Z,101744.52
2023-05-24T13:49:10.477Z,101749.73
2023-05-24T13:51:39.333Z,101752.83
2023-05-24T13:54:08.533Z,101751.49
2023-05-24T13:56:37.326Z,101748.02
2023-05-24T13:59:06.500Z,101735.34
2023-05-24T14:01:35.479Z,101740.05
2023-05-24T14:04:04.270Z,101746.13
2023-05-24T14:06:34.043Z,101735.30
2023-05-24T14:09:02.384Z,101740.57
2023-05-24T14:11:33.059Z,101746.13
2023-05-24T14:16:32.771Z,101738.73
2023-05-24T14:19:00.925Z,101741.35
2023-05-24T14:21:28.998Z,101744.79
2023-05-24T14:23:57.071Z,101737.43
2023-05-24T14:26:25.091Z,101730.34
2023-05-24T14:28:56.005Z,101727.95
2023-05-24T14:31:25.250Z,101726.64
2023-05-24T14:33:53.294Z,101727.72
2023-05-24T14:36:21.258Z,101730.66
2023-05-24T14:38:49.264Z,101731.41
2023-05-24T14:41:17.541Z,101725.13
2023-05-24T14:43:45.803Z,101730.14
2023-05-24T14:46:13.839Z,101724.64
2023-05-24T14:48:42.855Z,101729.38
2023-05-24T14:51:11.838Z,101729.38
2023-05-24T14:53:39.776Z,101728.89
2023-05-24T14:56:10.365Z,101724.41
2023-05-24T14:58:38.415Z,101728.05
2023-05-24T15:01:06.643Z,101723.56
2023-05-24T15:03:35.111Z,101717.74
2023-05-24T15:06:03.884Z,101720.36
2023-05-24T15:08:32.309Z,101719.22
2023-05-24T15:11:00.369Z,101728.66
2023-05-24T15:13:28.353Z,101723.44
2023-05-24T15:15:57.908Z,101723.66
2023-05-24T15:18:27.033Z,101720.75
2023-05-24T15:20:57.266Z,101717.32
2023-05-24T15:23:26.274Z,101729.38
2023-05-24T15:25:54.229Z,101728.53
2023-05-24T15:28:23.471Z,101718.76
2023-05-24T15:30:53.647Z,101715.45
2023-05-24T15:33:21.722Z,101713.55
2023-05-24T15:35:49.910Z,101725.33
2023-05-24T15:38:19.828Z,101728.44
2023-05-24T15:40:48.353Z,101722.32
2023-05-24T15:43:19.878Z,101722.03
2023-05-24T15:45:48.489Z,101728.01
2023-05-24T15:48:16.663Z,101718.82
2023-05-24T15:51:11.568Z,101722.13
2023-05-24T15:53:32.622Z,101723.14
2023-05-24T15:56:01.218Z,101723.86
2023-05-24T15:58:29.157Z,101718.59
2023-05-24T16:00:57.066Z,101716.93
2023-05-24T16:03:25.221Z,101723.44
2023-05-24T16:05:53.457Z,101727.03
2023-05-24T16:08:24.588Z,101715.42
2023-05-24T16:10:52.775Z,101725.30
2023-05-24T16:13:21.037Z,101726.80
2023-05-24T16:15:52.819Z,101730.70
2023-05-24T16:18:23.792Z,101730.92
2023-05-24T16:20:53.122Z,101734.52
2023-05-24T16:23:24.273Z,101732.33
2023-05-24T16:25:52.878Z,101729.98
2023-05-24T16:28:25.244Z,101727.29
2023-05-24T16:30:56.914Z,101724.41
2023-05-24T16:33:25.872Z,101726.48
2023-05-24T16:35:57.490Z,101718.86
2023-05-24T16:38:27.351Z,101723.70
2023-05-24T16:40:55.776Z,101725.79
2023-05-24T16:43:24.068Z,101729.19
2023-05-24T16:45:52.748Z,101724.41
2023-05-24T16:48:22.789Z,101724.12
2023-05-24T16:50:52.924Z,101726.70
2023-05-24T16:53:24.160Z,101731.41
2023-05-24T16:55:55.101Z,101738.93
2023-05-24T16:58:24.051Z,101738.15
2023-05-24T17:00:52.445Z,101734.20
2023-05-24T17:03:23.353Z,101741.55
2023-05-24T17:05:51.907Z,101744.63
2023-05-24T17:08:21.993Z,101737.76
2023-05-24T17:10:57.085Z,101737.20
2023-05-24T17:13:25.426Z,101743.94
2023-05-24T17:15:54.667Z,101732.10
2023-05-24T17:18:29.326Z,101741.74
2023-05-24T17:21:02.681Z,101741.95
2023-05-24T17:23:35.976Z,101744.36
2023-05-24T17:26:04.162Z,101746.13
2023-05-24T17:28:32.524Z,101741.38
2023-05-24T17:31:04.489Z,101750.31
2023-05-24T17:33:33.512Z,101754.20
2023-05-24T17:36:05.569Z,101754.66
2023-05-24T17:38:38.993Z,101753.29
2023-05-24T17:41:11.034Z,101760.65
2023-05-24T17:43:41.431Z,101759.05
2023-05-24T17:46:11.200Z,101760.65
2023-05-24T17:48:41.396Z,101767.97
2023-05-24T17:51:10.852Z,101770.09
2023-05-24T17:53:39.876Z,101767.19
2023-05-24T17:56:09.105Z,101770.55
2023-05-24T17:58:37.639Z,101774.74
2023-05-24T18:01:07.497Z,101770.75
2023-05-24T18:03:40.044Z,101774.15
2023-05-24T18:06:09.165Z,101774.64
2023-05-24T18:08:39.262Z,101776.70
2023-05-24T18:11:10.088Z,101779.91
2023-05-24T18:13:43.458Z,101781.21
2023-05-24T18:16:12.613Z,101782.00
2023-05-24T18:18:40.958Z,101782.46
2023-05-24T18:21:10.929Z,101789.03
2023-05-24T18:23:39.419Z,101796.39
2023-05-24T18:26:09.448Z,101795.60
2023-05-24T18:28:42.721Z,101796.39
2023-05-24T18:31:15.848Z,101793.22
2023-05-24T18:33:43.824Z,101797.70
2023-05-24T18:36:12.104Z,101793.51
2023-05-24T18:38:42.957Z,101799.56
2023-05-24T18:41:13.073Z,101799.85
2023-05-24T18:43:41.590Z,101799.07
2023-05-24T18:46:14.489Z,101787.76
2023-05-24T18:48:43.281Z,101794.62
2023-05-24T18:51:11.644Z,101794.62
2023-05-24T18:53:39.612Z,101794.00
2023-05-24T18:56:07.816Z,101789.52
2023-05-24T18:58:35.830Z,101797.40
2023-05-24T19:01:03.891Z,101802.86
2023-05-24T19:03:32.050Z,101803.22
2023-05-24T19:06:00.067Z,101801.52
2023-05-24T19:08:28.324Z,101802.73
2023-05-24T19:10:56.249Z,101806.75
2023-05-24T19:13:24.239Z,101812.41
2023-05-24T19:15:52.249Z,101806.52
2023-05-24T19:18:20.540Z,101806.63
2023-05-24T19:20:50.143Z,101807.27
2023-05-24T19:23:18.265Z,101802.21
2023-05-24T19:25:49.164Z,101809.08
2023-05-24T19:28:18.026Z,101801.62
2023-05-24T19:30:46.022Z,101805.67
2023-05-24T19:33:14.067Z,101803.48
2023-05-24T19:35:42.704Z,101798.55
2023-05-24T19:38:11.118Z,101803.71
2023-05-24T19:40:39.062Z,101801.00
2023-05-24T19:43:07.303Z,101807.73
2023-05-24T19:45:35.319Z,101802.96
2023-05-24T19:48:03.345Z,101801.55
2023-05-24T19:50:31.592Z,101809.37
2023-05-24T19:52:59.519Z,101802.50
2023-05-24T19:55:27.687Z,101805.87
2023-05-24T19:57:55.787Z,101797.73
2023-05-24T20:00:23.929Z,101809.24
2023-05-24T20:02:51.933Z,101801.88
2023-05-24T20:05:19.964Z,101806.82
2023-05-24T20:07:47.960Z,101806.07
2023-05-24T20:10:15.927Z,101814.66
2023-05-24T20:12:44.122Z,101821.70
2023-05-24T20:15:15.292Z,101825.88
2023-05-24T20:17:43.405Z,101819.48
2023-05-24T20:20:11.874Z,101816.79
2023-05-24T20:22:39.870Z,101821.73
2023-05-24T20:25:08.417Z,101821.44
2023-05-24T20:27:36.704Z,101825.59
2023-05-24T20:30:05.510Z,101825.27
2023-05-24T20:32:33.620Z,101820.81
2023-05-24T20:35:01.909Z,101820.03
2023-05-24T20:37:30.126Z,101820.48
2023-05-24T20:39:58.346Z,101825.42
2023-05-24T20:42:26.343Z,101824.18
2023-05-24T20:44:54.295Z,101818.88
2023-05-24T20:47:22.213Z,101826.54
2023-05-24T20:49:50.171Z,101817.45
2023-05-24T20:52:18.177Z,101822.38
2023-05-24T20:54:46.324Z,101818.55
2023-05-24T20:57:14.222Z,101824.94
2023-05-24T20:59:42.352Z,101816.59
2023-05-24T21:02:10.298Z,101812.15
2023-05-24T21:04:38.287Z,101798.58
2023-05-24T21:07:06.277Z,101807.02
2023-05-24T21:09:34.380Z,101812.77
2023-05-24T21:12:02.950Z,101808.29
2023-05-24T21:14:31.831Z,101796.78
2023-05-24T21:17:00.021Z,101793.61
2023-05-24T21:19:28.306Z,101790.27
2023-05-24T21:21:56.234Z,101800.48
2023-05-24T21:24:24.320Z,101795.51
2023-05-24T21:26:52.622Z,101791.55
2023-05-24T21:29:20.786Z,101795.51
2023-05-24T21:31:49.835Z,101796.78
2023-05-24T21:34:17.786Z,101800.97
2023-05-24T21:36:45.858Z,101800.48
2023-05-24T21:39:13.794Z,101804.14
2023-05-24T21:41:41.948Z,101801.26
2023-05-24T21:44:10.562Z,101804.95
2023-05-24T21:46:38.673Z,101805.25
2023-05-24T21:49:06.710Z,101807.63
2023-05-24T21:51:34.969Z,101802.66
2023-05-24T21:54:02.988Z,101807.96
2023-05-24T21:56:31.000Z,101808.75
2023-05-24T21:58:59.252Z,101802.50
2023-05-24T22:01:27.369Z,101802.99
2023-05-24T22:03:55.672Z,101800.61
2023-05-24T22:06:25.251Z,101813.23
2023-05-24T22:08:53.203Z,101800.90
2023-05-24T22:11:21.324Z,101809.08
2023-05-24T22:13:49.300Z,101809.08
2023-05-24T22:16:17.629Z,101811.43
2023-05-24T22:18:45.679Z,101805.67
2023-05-24T22:21:15.667Z,101801.55
2023-05-24T22:23:45.327Z,101804.73
2023-05-24T22:26:14.136Z,101805.22
2023-05-24T22:28:52.034Z,101808.88
2023-05-24T22:31:21.042Z,101804.73
2023-05-24T22:33:52.526Z,101801.03
2023-05-24T22:36:20.393Z,101807.60
2023-05-24T22:38:48.314Z,101794.82
2023-05-24T22:41:16.285Z,101790.83
2023-05-24T22:43:44.291Z,101798.97
2023-05-24T22:46:12.287Z,101793.22
2023-05-24T22:48:41.962Z,101790.83
2023-05-24T22:51:10.616Z,101791.32
2023-05-24T22:53:39.438Z,101790.05
2023-05-24T22:56:09.193Z,101792.59
2023-05-24T22:58:38.042Z,101794.98
2023-05-24T23:01:06.120Z,101787.66
2023-05-24T23:03:34.085Z,101789.42
2023-05-24T23:06:05.715Z,101785.23
2023-05-24T23:08:34.617Z,101784.48
2023-05-24T23:11:02.614Z,101787.36
2023-05-24T23:13:34.362Z,101780.30
2023-05-24T23:16:02.447Z,101780.30
2023-05-24T23:18:30.585Z,101788.12
2023-05-24T23:20:59.216Z,101793.09
2023-05-24T23:23:28.568Z,101780.01
2023-05-24T23:25:56.570Z,101792.79
2023-05-24T23:28:24.530Z,101787.52
2023-05-24T23:30:52.643Z,101775.20
2023-05-24T23:33:20.574Z,101776.80
2023-05-24T23:35:48.548Z,101773.63
2023-05-24T23:38:17.194Z,101780.17
2023-05-24T23:40:45.246Z,101782.75
2023-05-24T23:43:13.228Z,101783.24
2023-05-24T23:45:41.183Z,101778.47
2023-05-24T23:48:09.255Z,101781.64
2023-05-24T23:50:50.261Z,101780.82
2023-05-24T23:53:21.690Z,101773.20
2023-05-24T23:55:49.723Z,101776.24
2023-05-24T23:58:17.696Z,101776.24
